Bischofshofen, Austria
Current Conditions -  °F | °C
As of 6:20 AM on Thursday 27 Nov 2014 (Local Time) from LOWS Reporting Station
Broken Clouds Broken Clouds  
Wind Chill: 37°   Ceiling: 800
Heat Index: 37°   Visibility: 5mi
Dew Point: 36°   Wind: 1mph
Humidity: 93%   Direction: NA
Pressure: 29.85"   Gusts: NA
Location:  47.42°N, 13.21°E
Report Text: LOWS 270520Z VRB01KT 8000 FEW005 BKN008 03/02 Q1011 NOSIG
Loading
Personal Weather Stations






























Interactive Weather Map New forecast layout! Learn more

10-Day Weather Forecast

Advertisements
Track Severe Weather on mobile